Time;durP1;ratioP1;P1;durP2;ratioP2;P2;SDS_P1;SDS_P2;PMS_P1;PMS_P2;Temp;Humidity;BMP_temperature;BMP_pressure;BME280_temperature;BME280_humidity;BME280_pressure;Samples;Min_cycle;Max_cycle;Signal;HPM_P1;HPM_P2
2023/06/14 00:01:29;;;;;;;7.30;3.40;;;;;;;;;;5048802;28;20112;-64
2023/06/14 00:04:18;;;;;;;5.63;3.47;;;;;;;;;;5061534;28;20060;-60
2023/06/14 00:07:03;;;;;;;7.25;3.90;;;;;;;;;;5050020;28;20538;-62
2023/06/14 00:09:48;;;;;;;6.25;3.83;;;;;;;;;;5046183;28;20150;-61
2023/06/14 00:12:34;;;;;;;6.82;4.03;;;;;;;;;;5050443;28;20782;-61
2023/06/14 00:15:19;;;;;;;6.93;3.30;;;;;;;;;;5040639;28;20093;-61
2023/06/14 00:18:05;;;;;;;6.93;4.00;;;;;;;;;;5042164;28;20090;-61
2023/06/14 00:20:51;;;;;;;7.10;3.25;;;;;;;;;;5052943;28;20036;-60
2023/06/14 00:23:36;;;;;;;4.30;3.28;;;;;;;;;;5043009;28;20078;-61
2023/06/14 00:26:22;;;;;;;9.25;3.92;;;;;;;;;;5041364;28;20568;-62
2023/06/14 00:29:07;;;;;;;5.15;3.08;;;;;;;;;;5040540;28;20174;-62
2023/06/14 00:31:52;;;;;;;6.57;3.35;;;;;;;;;;5053316;28;20107;-61
2023/06/14 00:34:37;;;;;;;6.95;3.08;;;;;;;;;;5045372;28;20025;-60
2023/06/14 00:37:22;;;;;;;8.75;3.95;;;;;;;;;;5050047;28;20371;-61
2023/06/14 00:40:08;;;;;;;9.98;3.78;;;;;;;;;;5045265;28;20178;-57
2023/06/14 00:42:53;;;;;;;8.85;3.28;;;;;;;;;;5057939;28;20056;-61
2023/06/14 00:45:38;;;;;;;8.65;3.53;;;;;;;;;;5040471;28;20094;-63
2023/06/14 00:48:24;;;;;;;6.93;3.83;;;;;;;;;;5052768;28;20124;-61
2023/06/14 00:51:09;;;;;;;6.28;3.85;;;;;;;;;;5047661;28;20028;-63
2023/06/14 00:53:55;;;;;;;6.90;3.40;;;;;;;;;;5058567;28;20386;-75
2023/06/14 00:56:40;;;;;;;9.27;4.43;;;;;;;;;;5045045;28;20021;-61
2023/06/14 00:59:25;;;;;;;6.65;3.38;;;;;;;;;;5041186;28;20028;-63
2023/06/14 01:02:11;;;;;;;6.22;3.58;;;;;;;;;;5038830;28;20032;-65
2023/06/14 01:04:56;;;;;;;5.90;3.60;;;;;;;;;;5033087;28;20369;-65
2023/06/14 01:07:51;;;;;;;5.70;3.50;;;;;;;;;;5042206;28;20032;-63
2023/06/14 01:10:51;;;;;;;6.47;3.40;;;;;;;;;;5045646;28;20754;-63
2023/06/14 01:13:37;;;;;;;5.85;3.38;;;;;;;;;;5058053;28;20105;-66
2023/06/14 01:16:23;;;;;;;6.15;3.63;;;;;;;;;;5050568;28;20494;-74
2023/06/14 01:19:12;;;;;;;5.60;3.50;;;;;;;;;;5051178;28;20116;-72
2023/06/14 01:21:57;;;;;;;;;;;;;;;;;;5052996;28;20033;-71
2023/06/14 01:24:44;;;;;;;6.50;3.67;;;;;;;;;;5047374;28;19916;-74
2023/06/14 01:27:32;;;;;;;7.53;3.70;;;;;;;;;;5055068;28;20040;-73
2023/06/14 01:30:18;;;;;;;5.68;2.92;;;;;;;;;;5065199;28;20032;-66
2023/06/14 01:33:04;;;;;;;6.93;3.85;;;;;;;;;;5043457;28;20067;-74
2023/06/14 01:35:50;;;;;;;5.88;3.30;;;;;;;;;;5050361;28;20040;-65
2023/06/14 01:38:37;;;;;;;7.40;3.47;;;;;;;;;;5052230;28;20027;-66
2023/06/14 01:41:22;;;;;;;6.05;3.75;;;;;;;;;;5044956;28;20023;-62
2023/06/14 01:44:08;;;;;;;5.25;3.67;;;;;;;;;;5051377;28;20071;-64
2023/06/14 01:46:54;;;;;;;7.07;3.63;;;;;;;;;;5069585;28;20086;-64
2023/06/14 01:49:39;;;;;;;5.05;3.30;;;;;;;;;;5056152;28;20036;-63
2023/06/14 01:52:25;;;;;;;6.25;3.63;;;;;;;;;;5044174;28;20035;-63
2023/06/14 01:55:10;;;;;;;6.50;3.88;;;;;;;;;;5051002;28;20039;-63
2023/06/14 01:57:55;;;;;;;10.90;3.30;;;;;;;;;;5041058;28;20075;-62
2023/06/14 02:00:42;;;;;;;6.68;3.83;;;;;;;;;;5063234;28;20032;-62
2023/06/14 02:03:28;;;;;;;5.82;3.35;;;;;;;;;;5056124;28;20493;-64
2023/06/14 02:06:13;;;;;;;5.65;3.55;;;;;;;;;;5046700;28;20036;-63
2023/06/14 02:08:58;;;;;;;5.93;3.10;;;;;;;;;;5033896;28;20075;-67
2023/06/14 02:11:44;;;;;;;7.60;3.53;;;;;;;;;;5045274;28;20060;-62
2023/06/14 02:14:29;;;;;;;6.72;3.65;;;;;;;;;;5047650;28;20047;-63
2023/06/14 02:17:14;;;;;;;12.10;3.88;;;;;;;;;;5055383;28;20021;-62
2023/06/14 02:20:00;;;;;;;9.40;4.03;;;;;;;;;;5048359;28;20271;-63
2023/06/14 02:22:45;;;;;;;5.43;3.38;;;;;;;;;;5046605;28;20043;-63
2023/06/14 02:25:30;;;;;;;5.20;3.22;;;;;;;;;;5053306;28;20028;-68
2023/06/14 02:28:16;;;;;;;8.70;3.78;;;;;;;;;;5052087;28;20028;-61
2023/06/14 02:31:01;;;;;;;6.95;3.92;;;;;;;;;;5064628;28;20376;-62
2023/06/14 02:33:46;;;;;;;5.18;3.67;;;;;;;;;;5067850;28;20024;-61
2023/06/14 02:36:31;;;;;;;8.15;4.03;;;;;;;;;;5053686;28;20031;-62
2023/06/14 02:39:17;;;;;;;6.70;3.28;;;;;;;;;;5044158;28;20090;-61
2023/06/14 02:42:02;;;;;;;6.68;3.58;;;;;;;;;;5046339;28;20032;-64
2023/06/14 02:44:51;;;;;;;6.60;3.75;;;;;;;;;;5049397;28;20036;-68
2023/06/14 02:47:36;;;;;;;7.05;3.97;;;;;;;;;;5048726;28;20028;-64
2023/06/14 02:50:21;;;;;;;6.40;3.70;;;;;;;;;;5048860;28;20032;-63
2023/06/14 02:53:07;;;;;;;7.93;3.60;;;;;;;;;;5048885;28;20423;-62
2023/06/14 02:55:52;;;;;;;5.90;3.40;;;;;;;;;;5052856;28;20075;-62
2023/06/14 02:58:39;;;;;;;7.50;3.47;;;;;;;;;;5038501;28;20032;-60
2023/06/14 03:01:34;;;;;;;7.32;3.75;;;;;;;;;;5053945;28;20035;-62
2023/06/14 03:04:20;;;;;;;6.03;3.92;;;;;;;;;;5044339;28;20032;-73
2023/06/14 03:07:12;;;;;;;8.32;4.03;;;;;;;;;;5038452;28;21778;-66
2023/06/14 03:09:57;;;;;;;7.78;3.67;;;;;;;;;;5051968;28;20043;-66
2023/06/14 03:12:42;;;;;;;6.45;3.88;;;;;;;;;;5045232;28;20108;-68
2023/06/14 03:15:28;;;;;;;6.85;3.53;;;;;;;;;;5036684;28;20119;-66
2023/06/14 03:18:14;;;;;;;7.20;3.45;;;;;;;;;;5053163;28;20036;-67
2023/06/14 03:21:00;;;;;;;6.75;3.85;;;;;;;;;;5047735;28;20483;-61
2023/06/14 03:23:45;;;;;;;6.38;3.67;;;;;;;;;;5041234;28;20079;-65
2023/06/14 03:26:31;;;;;;;6.47;3.83;;;;;;;;;;5051111;28;20032;-73
2023/06/14 03:29:16;;;;;;;5.53;3.47;;;;;;;;;;5045517;28;20059;-74
2023/06/14 03:32:03;;;;;;;7.03;3.33;;;;;;;;;;5043688;28;20029;-73
2023/06/14 03:34:48;;;;;;;7.75;4.15;;;;;;;;;;5049124;28;20062;-73
2023/06/14 03:37:33;;;;;;;7.60;4.10;;;;;;;;;;5051780;28;20060;-74
2023/06/14 03:40:19;;;;;;;7.30;3.65;;;;;;;;;;5051085;28;20651;-64
2023/06/14 03:43:05;;;;;;;6.32;4.10;;;;;;;;;;5038051;28;20078;-62
2023/06/14 03:45:50;;;;;;;9.18;3.92;;;;;;;;;;5045220;28;20457;-62
2023/06/14 03:48:35;;;;;;;8.30;3.72;;;;;;;;;;5052990;28;20511;-62
2023/06/14 03:51:22;;;;;;;6.93;3.53;;;;;;;;;;5045052;28;20075;-63
2023/06/14 03:54:07;;;;;;;7.18;3.47;;;;;;;;;;5052301;28;20021;-63
2023/06/14 03:56:53;;;;;;;7.10;3.58;;;;;;;;;;5047498;28;20485;-65
2023/06/14 03:59:38;;;;;;;8.48;3.65;;;;;;;;;;5049140;28;20024;-69
2023/06/14 04:02:23;;;;;;;7.85;3.90;;;;;;;;;;5044039;28;20117;-62
2023/06/14 04:05:08;;;;;;;6.07;3.70;;;;;;;;;;5052816;28;20058;-64
2023/06/14 04:07:55;;;;;;;7.85;4.25;;;;;;;;;;5042248;28;20036;-63
2023/06/14 04:10:40;;;;;;;7.30;3.53;;;;;;;;;;5042281;28;20056;-62
2023/06/14 04:13:26;;;;;;;7.43;3.72;;;;;;;;;;5047569;28;20485;-62
2023/06/14 04:16:11;;;;;;;10.32;4.35;;;;;;;;;;5053377;28;20393;-75
2023/06/14 04:18:57;;;;;;;6.43;4.20;;;;;;;;;;5049416;28;20119;-62
2023/06/14 04:21:43;;;;;;;7.25;3.78;;;;;;;;;;5051434;28;20390;-66
2023/06/14 04:24:34;;;;;;;5.85;3.70;;;;;;;;;;5048819;28;20087;-65
2023/06/14 04:27:21;;;;;;;7.82;3.47;;;;;;;;;;5065084;28;20397;-65
2023/06/14 04:30:07;;;;;;;6.43;3.63;;;;;;;;;;5036997;28;20040;-68
2023/06/14 04:32:53;;;;;;;8.18;4.75;;;;;;;;;;5054344;28;20316;-64
2023/06/14 04:35:40;;;;;;;7.68;4.47;;;;;;;;;;5036516;28;20032;-67
2023/06/14 04:38:27;;;;;;;5.32;3.83;;;;;;;;;;5062199;28;20094;-61
2023/06/14 04:41:13;;;;;;;9.43;4.65;;;;;;;;;;5051232;28;20086;-61
2023/06/14 04:44:01;;;;;;;6.60;4.00;;;;;;;;;;5052681;28;20043;-60
2023/06/14 04:46:46;;;;;;;7.93;4.20;;;;;;;;;;5047662;28;20068;-60
2023/06/14 04:49:33;;;;;;;7.90;3.83;;;;;;;;;;5057287;28;20353;-62
2023/06/14 04:52:20;;;;;;;7.63;3.92;;;;;;;;;;5046196;28;20028;-60
2023/06/14 04:55:06;;;;;;;10.13;4.18;;;;;;;;;;5056933;28;20033;-63
2023/06/14 04:57:53;;;;;;;7.70;4.55;;;;;;;;;;5054129;28;20028;-65
2023/06/14 05:00:38;;;;;;;5.95;3.50;;;;;;;;;;5050705;28;20046;-65
2023/06/14 05:03:23;;;;;;;11.85;4.28;;;;;;;;;;5054597;28;20697;-67
2023/06/14 05:06:08;;;;;;;8.02;3.90;;;;;;;;;;5048900;28;20431;-64
2023/06/14 05:08:54;;;;;;;7.80;3.80;;;;;;;;;;5050072;28;20028;-64
2023/06/14 05:11:39;;;;;;;7.18;4.82;;;;;;;;;;5050915;28;20453;-66
2023/06/14 05:14:25;;;;;;;9.02;4.15;;;;;;;;;;5046908;28;20021;-63
2023/06/14 05:17:10;;;;;;;7.00;3.78;;;;;;;;;;5058654;28;20074;-60
2023/06/14 05:19:55;;;;;;;8.15;4.15;;;;;;;;;;5051994;28;20116;-60
2023/06/14 05:22:41;;;;;;;14.10;5.55;;;;;;;;;;5046692;28;20035;-67
2023/06/14 05:25:28;;;;;;;8.32;4.65;;;;;;;;;;5070371;28;20016;-62
2023/06/14 05:28:13;;;;;;;9.70;4.05;;;;;;;;;;5066496;28;20029;-63
2023/06/14 05:30:58;;;;;;;11.05;4.22;;;;;;;;;;5059075;28;20477;-66
2023/06/14 05:33:43;;;;;;;10.30;4.05;;;;;;;;;;5052485;28;20020;-66
2023/06/14 05:36:29;;;;;;;7.95;4.07;;;;;;;;;;5054975;28;20029;-64
2023/06/14 05:39:14;;;;;;;9.65;4.22;;;;;;;;;;5046111;28;20033;-66
2023/06/14 05:41:59;;;;;;;14.35;4.35;;;;;;;;;;5055038;28;20490;-66
2023/06/14 05:44:44;;;;;;;7.22;4.25;;;;;;;;;;5048806;28;20062;-67
2023/06/14 05:47:30;;;;;;;6.22;4.28;;;;;;;;;;5041759;28;20039;-67
2023/06/14 05:50:15;;;;;;;8.05;4.40;;;;;;;;;;5047286;28;20154;-62
2023/06/14 05:53:00;;;;;;;8.10;4.20;;;;;;;;;;5071156;28;20156;-62
2023/06/14 05:55:45;;;;;;;8.27;3.67;;;;;;;;;;5040074;28;20031;-61
2023/06/14 05:58:31;;;;;;;8.48;4.35;;;;;;;;;;5054205;28;20043;-61
2023/06/14 06:01:16;;;;;;;8.52;3.85;;;;;;;;;;5064102;28;20104;-62
2023/06/14 06:04:01;;;;;;;7.65;4.00;;;;;;;;;;5063024;28;20103;-61
2023/06/14 06:06:47;;;;;;;8.88;4.30;;;;;;;;;;5060525;28;20475;-61
2023/06/14 06:09:32;;;;;;;6.10;3.75;;;;;;;;;;5048552;28;20606;-67
2023/06/14 06:12:18;;;;;;;7.95;4.63;;;;;;;;;;5048427;28;20040;-66
2023/06/14 06:15:03;;;;;;;13.02;4.30;;;;;;;;;;5050979;28;20024;-68
2023/06/14 06:17:49;;;;;;;9.35;3.95;;;;;;;;;;5044898;28;20131;-67
2023/06/14 06:20:34;;;;;;;6.35;3.85;;;;;;;;;;5034192;28;20041;-67
2023/06/14 06:23:19;;;;;;;9.52;4.18;;;;;;;;;;5044080;28;20107;-68
2023/06/14 06:26:05;;;;;;;8.48;4.40;;;;;;;;;;5043397;28;20457;-75
2023/06/14 06:28:50;;;;;;;8.32;4.40;;;;;;;;;;5040401;28;20052;-68
2023/06/14 06:31:35;;;;;;;9.60;4.85;;;;;;;;;;5055823;28;20093;-68
2023/06/14 06:34:20;;;;;;;9.60;4.82;;;;;;;;;;5049834;28;20060;-66
2023/06/14 06:37:06;;;;;;;13.93;4.80;;;;;;;;;;5037478;28;20056;-69
2023/06/14 06:39:51;;;;;;;8.60;3.58;;;;;;;;;;5053779;28;20430;-69
2023/06/14 06:42:36;;;;;;;7.82;3.58;;;;;;;;;;5055729;28;20028;-68
2023/06/14 06:45:23;;;;;;;8.13;4.75;;;;;;;;;;5052421;28;20357;-71
2023/06/14 06:48:10;;;;;;;10.50;5.03;;;;;;;;;;5043114;28;20024;-74
2023/06/14 06:50:55;;;;;;;8.13;4.40;;;;;;;;;;5030682;28;20021;-76
2023/06/14 06:53:43;;;;;;;10.70;3.80;;;;;;;;;;5040211;28;20510;-74
2023/06/14 06:56:29;;;;;;;9.13;4.10;;;;;;;;;;5037814;28;20045;-74
2023/06/14 06:59:16;;;;;;;8.90;4.45;;;;;;;;;;5049622;28;20471;-75
2023/06/14 07:02:01;;;;;;;7.75;4.20;;;;;;;;;;5053606;28;20070;-69
2023/06/14 07:04:47;;;;;;;7.95;4.15;;;;;;;;;;5031357;28;20021;-66
2023/06/14 07:07:32;;;;;;;10.88;4.57;;;;;;;;;;5055522;28;20359;-67
2023/06/14 07:10:18;;;;;;;7.75;3.95;;;;;;;;;;5030661;28;20455;-67
2023/06/14 07:13:03;;;;;;;6.65;4.40;;;;;;;;;;5052854;28;20071;-66
2023/06/14 07:15:49;;;;;;;10.38;4.60;;;;;;;;;;5034935;28;20050;-68
2023/06/14 07:18:34;;;;;;;8.55;4.47;;;;;;;;;;5050897;28;20036;-69
2023/06/14 07:21:19;;;;;;;7.82;3.90;;;;;;;;;;5054991;28;20050;-67
2023/06/14 07:24:07;;;;;;;10.77;4.63;;;;;;;;;;5043879;28;20079;-70
2023/06/14 07:26:53;;;;;;;8.85;4.22;;;;;;;;;;5060603;28;20068;-70
2023/06/14 07:29:38;;;;;;;6.25;3.47;;;;;;;;;;5054954;28;20025;-69
2023/06/14 07:32:23;;;;;;;9.13;3.97;;;;;;;;;;5053597;28;20028;-69
2023/06/14 07:35:08;;;;;;;9.90;4.40;;;;;;;;;;5034931;28;20024;-69
2023/06/14 07:37:54;;;;;;;7.68;4.13;;;;;;;;;;5050678;28;20323;-68
2023/06/14 07:40:39;;;;;;;10.95;4.00;;;;;;;;;;5053024;28;20101;-75
2023/06/14 07:43:24;;;;;;;8.63;3.55;;;;;;;;;;5054319;28;20215;-69
2023/06/14 07:46:09;;;;;;;8.27;3.92;;;;;;;;;;5052341;28;20399;-69
2023/06/14 07:48:55;;;;;;;6.45;4.70;;;;;;;;;;5044994;28;20029;-70
2023/06/14 07:51:40;;;;;;;8.85;3.70;;;;;;;;;;5053235;28;20024;-69
2023/06/14 07:54:26;;;;;;;4.88;3.67;;;;;;;;;;5050846;28;20096;-71
2023/06/14 07:57:11;;;;;;;6.28;3.78;;;;;;;;;;5054904;28;20090;-67
2023/06/14 07:59:56;;;;;;;6.07;3.67;;;;;;;;;;5053878;28;20107;-65
2023/06/14 08:02:43;;;;;;;8.57;4.00;;;;;;;;;;5051561;28;20048;-67
2023/06/14 08:05:28;;;;;;;7.15;3.70;;;;;;;;;;5048270;28;20059;-65
2023/06/14 08:08:14;;;;;;;7.38;3.95;;;;;;;;;;5039245;28;20032;-67
2023/06/14 08:10:59;;;;;;;6.90;3.90;;;;;;;;;;5053367;28;20028;-66
2023/06/14 08:13:44;;;;;;;7.68;4.00;;;;;;;;;;5053585;28;20032;-66
2023/06/14 08:16:29;;;;;;;7.70;4.07;;;;;;;;;;5046135;28;20467;-75
2023/06/14 08:19:16;;;;;;;8.00;3.67;;;;;;;;;;5045225;28;20047;-72
2023/06/14 08:22:01;;;;;;;6.82;4.07;;;;;;;;;;5022257;28;20108;-72
2023/06/14 08:24:47;;;;;;;8.30;4.25;;;;;;;;;;5047947;28;20024;-71
2023/06/14 08:27:32;;;;;;;7.13;3.60;;;;;;;;;;5045083;28;20037;-73
2023/06/14 08:30:18;;;;;;;9.35;3.90;;;;;;;;;;5057990;28;20066;-73
2023/06/14 08:33:03;;;;;;;11.82;4.18;;;;;;;;;;5058558;28;20036;-71
2023/06/14 08:35:48;;;;;;;6.70;4.07;;;;;;;;;;5056894;28;20046;-71
2023/06/14 08:38:34;;;;;;;9.38;4.22;;;;;;;;;;5058065;28;20032;-70
2023/06/14 08:41:24;;;;;;;11.93;4.00;;;;;;;;;;5026696;28;20068;-69
2023/06/14 08:44:09;;;;;;;11.50;4.10;;;;;;;;;;5069826;28;20048;-69
2023/06/14 08:46:56;;;;;;;6.22;3.78;;;;;;;;;;5056958;28;20039;-69
2023/06/14 08:49:45;;;;;;;7.00;3.97;;;;;;;;;;5055068;28;20503;-70
2023/06/14 08:52:33;;;;;;;7.10;4.18;;;;;;;;;;5057439;28;20064;-70
2023/06/14 08:55:19;;;;;;;7.55;4.00;;;;;;;;;;5045357;28;20041;-73
2023/06/14 08:58:05;;;;;;;6.65;4.30;;;;;;;;;;5052036;28;20028;-72
2023/06/14 09:00:52;;;;;;;6.82;3.90;;;;;;;;;;5052863;28;20029;-72
2023/06/14 09:03:40;;;;;;;11.05;4.90;;;;;;;;;;5042193;28;20493;-74
2023/06/14 09:06:28;;;;;;;9.93;3.90;;;;;;;;;;5043057;28;20037;-72
2023/06/14 09:09:13;;;;;;;7.50;4.03;;;;;;;;;;5056172;28;20521;-75
2023/06/14 09:11:58;;;;;;;7.00;3.58;;;;;;;;;;5057515;28;20020;-66
2023/06/14 09:14:44;;;;;;;6.88;4.03;;;;;;;;;;5056948;28;20032;-70
2023/06/14 09:17:29;;;;;;;6.72;3.55;;;;;;;;;;5057117;28;20036;-68
2023/06/14 09:20:18;;;;;;;12.35;4.15;;;;;;;;;;5050800;28;20169;-70
2023/06/14 09:23:05;;;;;;;7.88;3.80;;;;;;;;;;5056509;28;20035;-70
2023/06/14 09:25:50;;;;;;;6.95;3.65;;;;;;;;;;5049164;28;20475;-70
2023/06/14 09:28:35;;;;;;;9.80;3.67;;;;;;;;;;5053147;28;20036;-69
2023/06/14 09:31:21;;;;;;;13.07;4.57;;;;;;;;;;5057011;28;20028;-65
2023/06/14 09:34:07;;;;;;;8.10;3.90;;;;;;;;;;5056385;28;20020;-74
2023/06/14 09:36:52;;;;;;;9.43;4.75;;;;;;;;;;5056471;28;20471;-75
2023/06/14 09:39:50;;;;;;;11.10;3.75;;;;;;;;;;5039164;28;20032;-72
2023/06/14 09:42:36;;;;;;;6.33;4.03;;;;;;;;;;5070938;28;20033;-74
2023/06/14 09:45:22;;;;;;;11.05;3.83;;;;;;;;;;5049887;28;20047;-74
2023/06/14 09:48:08;;;;;;;7.18;3.85;;;;;;;;;;5052821;28;20028;-71
2023/06/14 09:50:55;;;;;;;6.47;3.65;;;;;;;;;;5054016;28;20020;-67
2023/06/14 09:53:41;;;;;;;5.50;3.35;;;;;;;;;;5054561;28;20837;-65
2023/06/14 09:56:26;;;;;;;6.63;3.53;;;;;;;;;;5041582;28;20487;-68
2023/06/14 09:59:12;;;;;;;7.28;3.90;;;;;;;;;;5053544;28;20063;-67
2023/06/14 10:01:59;;;;;;;6.50;3.60;;;;;;;;;;5032413;28;20033;-66
2023/06/14 10:04:46;;;;;;;8.50;4.38;;;;;;;;;;5055837;28;20459;-67
2023/06/14 10:08:01;;;;;;;6.30;3.70;;;;;;;;;;5055410;28;20032;-67
2023/06/14 10:10:46;;;;;;;10.25;3.88;;;;;;;;;;5050376;28;20044;-70
2023/06/14 10:13:35;;;;;;;8.50;3.40;;;;;;;;;;5056007;28;20037;-70
2023/06/14 10:16:23;;;;;;;6.70;3.70;;;;;;;;;;5056364;28;20103;-71
2023/06/14 10:19:28;;;;;;;9.07;4.50;;;;;;;;;;5036681;28;20090;-69
2023/06/14 10:22:26;;;;;;;6.13;3.65;;;;;;;;;;5045482;28;20035;-70
2023/06/14 10:25:26;;;;;;;6.85;3.35;;;;;;;;;;5051796;28;20089;-70
2023/06/14 10:28:19;;;;;;;7.13;3.75;;;;;;;;;;5056056;28;20462;-74
2023/06/14 10:31:08;;;;;;;5.65;3.60;;;;;;;;;;5055268;28;20035;-73
2023/06/14 10:33:53;;;;;;;;;;;;;;;;;;5056120;28;20048;-75
2023/06/14 10:36:41;;;;;;;7.22;3.83;;;;;;;;;;5055921;28;20433;-74
2023/06/14 10:39:27;;;;;;;6.47;3.45;;;;;;;;;;5054416;28;20048;-75
2023/06/14 10:42:12;;;;;;;6.07;3.63;;;;;;;;;;5041067;28;20037;-75
2023/06/14 10:45:01;;;;;;;8.73;4.28;;;;;;;;;;5055769;28;20028;-73
2023/06/14 10:47:48;;;;;;;8.07;4.03;;;;;;;;;;5053543;28;20024;-70
2023/06/14 10:50:34;;;;;;;8.98;3.63;;;;;;;;;;5047787;28;20037;-70
2023/06/14 10:53:22;;;;;;;8.95;4.30;;;;;;;;;;5055327;28;20036;-69
2023/06/14 10:56:07;;;;;;;5.57;3.40;;;;;;;;;;5040954;28;20070;-70
2023/06/14 10:58:52;;;;;;;7.32;4.07;;;;;;;;;;5055198;28;20491;-69
2023/06/14 11:01:46;;;;;;;5.30;3.65;;;;;;;;;;5039347;28;20494;-70
2023/06/14 11:04:46;;;;;;;5.65;3.58;;;;;;;;;;5054285;28;20031;-73
2023/06/14 11:07:51;;;;;;;8.25;3.45;;;;;;;;;;5055078;28;20043;-71
2023/06/14 11:10:37;;;;;;;6.38;3.58;;;;;;;;;;5053909;28;20100;-74
2023/06/14 11:13:25;;;;;;;6.88;3.28;;;;;;;;;;5021846;28;20041;-73
2023/06/14 11:16:11;;;;;;;7.43;3.50;;;;;;;;;;5050421;28;20107;-73
2023/06/14 11:18:57;;;;;;;6.20;3.53;;;;;;;;;;5048616;28;20029;-72
2023/06/14 11:21:42;;;;;;;18.27;3.72;;;;;;;;;;5054215;28;20020;-67
2023/06/14 11:24:27;;;;;;;6.43;3.53;;;;;;;;;;5045279;28;20072;-73
2023/06/14 11:27:13;;;;;;;7.28;3.85;;;;;;;;;;5055335;28;20078;-70
2023/06/14 11:29:59;;;;;;;9.82;3.55;;;;;;;;;;5054438;28;20505;-68
2023/06/14 11:32:48;;;;;;;6.68;3.60;;;;;;;;;;5053344;28;20086;-69
2023/06/14 11:35:34;;;;;;;6.53;3.50;;;;;;;;;;5054537;28;20264;-69
2023/06/14 11:38:19;;;;;;;6.15;3.70;;;;;;;;;;5044099;28;20075;-66
2023/06/14 11:41:05;;;;;;;5.32;3.33;;;;;;;;;;5045022;28;20130;-72
2023/06/14 11:43:52;;;;;;;6.78;3.60;;;;;;;;;;5054563;28;20037;-76
2023/06/14 11:46:38;;;;;;;7.60;3.63;;;;;;;;;;5054452;28;20036;-76
2023/06/14 11:49:23;;;;;;;10.48;3.45;;;;;;;;;;5054585;28;20063;-75
2023/06/14 11:52:09;;;;;;;8.05;3.17;;;;;;;;;;5035333;28;20040;-74
2023/06/14 11:54:54;;;;;;;4.72;3.30;;;;;;;;;;5044840;28;20108;-74
2023/06/14 11:57:40;;;;;;;8.82;4.10;;;;;;;;;;5055200;28;20051;-72
2023/06/14 12:00:25;;;;;;;4.05;2.83;;;;;;;;;;5052873;28;20119;-71
2023/06/14 12:03:12;;;;;;;6.10;3.13;;;;;;;;;;5052059;28;20375;-71
2023/06/14 12:06:08;;;;;;;6.15;3.53;;;;;;;;;;5049774;28;20048;-71
2023/06/14 12:08:55;;;;;;;10.25;4.07;;;;;;;;;;5053476;28;20024;-70
2023/06/14 12:11:40;;;;;;;11.70;4.03;;;;;;;;;;5047125;28;20020;-71
2023/06/14 12:14:30;;;;;;;6.97;3.15;;;;;;;;;;5053784;28;20437;-71
2023/06/14 12:17:17;;;;;;;9.02;3.72;;;;;;;;;;5053709;28;20119;-67
2023/06/14 12:20:13;;;;;;;6.70;3.85;;;;;;;;;;5052922;28;20446;-76
2023/06/14 12:23:00;;;;;;;5.97;3.20;;;;;;;;;;5054269;28;20036;-74
2023/06/14 12:25:46;;;;;;;7.35;3.83;;;;;;;;;;5039626;28;20021;-74
2023/06/14 12:28:31;;;;;;;8.93;3.35;;;;;;;;;;5054385;28;20207;-75
2023/06/14 12:31:18;;;;;;;6.82;3.80;;;;;;;;;;5054360;28;20115;-74
2023/06/14 12:34:04;;;;;;;5.03;3.53;;;;;;;;;;5052756;28;20039;-64
2023/06/14 12:36:53;;;;;;;5.93;3.10;;;;;;;;;;5054042;28;20036;-74
2023/06/14 12:39:39;;;;;;;;;;;;;;;;;;5054490;28;20487;-74
2023/06/14 12:42:25;;;;;;;4.78;3.22;;;;;;;;;;5052901;28;19913;-75
2023/06/14 12:45:10;;;;;;;5.60;3.28;;;;;;;;;;5034447;28;20169;-75
2023/06/14 12:47:56;;;;;;;6.85;3.03;;;;;;;;;;5055406;28;20363;-76
2023/06/14 12:50:41;;;;;;;6.13;4.10;;;;;;;;;;5048373;28;20063;-75
2023/06/14 12:53:26;;;;;;;5.30;3.20;;;;;;;;;;5053821;28;20521;-70
2023/06/14 12:56:12;;;;;;;5.93;2.85;;;;;;;;;;5039227;28;20252;-71
2023/06/14 12:58:58;;;;;;;10.05;4.30;;;;;;;;;;5053778;28;20113;-72
2023/06/14 13:01:44;;;;;;;6.25;3.10;;;;;;;;;;5053511;28;20383;-71
2023/06/14 13:04:29;;;;;;;7.15;3.30;;;;;;;;;;5042842;28;20032;-70
2023/06/14 13:07:15;;;;;;;3.88;2.90;;;;;;;;;;5053595;28;20028;-71
2023/06/14 13:10:00;;;;;;;5.68;3.28;;;;;;;;;;5053309;28;20063;-67
2023/06/14 13:12:45;;;;;;;6.20;3.25;;;;;;;;;;5053384;28;20505;-68
2023/06/14 13:15:30;;;;;;;5.93;3.50;;;;;;;;;;5057378;28;20028;-75
2023/06/14 13:18:16;;;;;;;4.80;3.20;;;;;;;;;;5056395;28;20033;-73
2023/06/14 13:21:01;;;;;;;7.03;3.90;;;;;;;;;;5047102;28;20020;-74
2023/06/14 13:23:46;;;;;;;6.82;3.72;;;;;;;;;;5027455;28;20507;-73
2023/06/14 13:26:32;;;;;;;6.50;3.22;;;;;;;;;;5034668;28;20033;-74
2023/06/14 13:29:17;;;;;;;5.80;3.45;;;;;;;;;;5044706;28;20033;-69
2023/06/14 13:32:03;;;;;;;6.70;3.30;;;;;;;;;;5052808;28;20036;-70
2023/06/14 13:34:48;;;;;;;6.05;3.25;;;;;;;;;;5055361;28;20499;-69
2023/06/14 13:37:34;;;;;;;5.22;3.25;;;;;;;;;;5056341;28;20027;-70
2023/06/14 13:40:19;;;;;;;4.28;3.00;;;;;;;;;;5056368;28;20028;-70
2023/06/14 13:43:05;;;;;;;7.10;3.25;;;;;;;;;;5055508;28;20032;-70
2023/06/14 13:45:50;;;;;;;7.05;3.22;;;;;;;;;;5056535;28;20052;-70
2023/06/14 13:48:35;;;;;;;6.15;3.10;;;;;;;;;;5047686;28;20143;-69
2023/06/14 13:51:20;;;;;;;5.05;3.63;;;;;;;;;;5050391;28;20052;-74
2023/06/14 13:54:06;;;;;;;6.53;3.47;;;;;;;;;;5036159;28;20033;-75
2023/06/14 13:56:51;;;;;;;5.97;3.83;;;;;;;;;;5056530;28;20025;-75
2023/06/14 13:59:36;;;;;;;7.25;3.33;;;;;;;;;;5056019;28;20507;-75
2023/06/14 14:02:21;;;;;;;4.82;3.05;;;;;;;;;;5056654;28;20438;-75
2023/06/14 14:05:08;;;;;;;5.28;3.15;;;;;;;;;;5045014;28;20030;-70
2023/06/14 14:07:54;;;;;;;6.90;3.60;;;;;;;;;;5055915;28;20089;-68
2023/06/14 14:10:39;;;;;;;5.55;3.20;;;;;;;;;;5056324;28;20039;-73
2023/06/14 14:13:24;;;;;;;5.15;2.92;;;;;;;;;;5041438;28;20370;-74
2023/06/14 14:16:10;;;;;;;7.22;3.08;;;;;;;;;;5056309;28;20025;-73
2023/06/14 14:18:55;;;;;;;7.25;4.25;;;;;;;;;;5056336;28;20116;-74
2023/06/14 14:21:41;;;;;;;5.38;3.30;;;;;;;;;;5055528;28;20275;-75
2023/06/14 14:24:26;;;;;;;7.32;2.88;;;;;;;;;;5032673;28;20033;-72
2023/06/14 14:27:11;;;;;;;8.48;3.70;;;;;;;;;;5048492;28;20029;-75
2023/06/14 14:29:56;;;;;;;6.65;3.05;;;;;;;;;;5059970;28;20032;-73
2023/06/14 14:32:43;;;;;;;6.07;3.30;;;;;;;;;;5056287;28;20386;-74
2023/06/14 14:35:30;;;;;;;5.85;3.65;;;;;;;;;;5052401;28;20365;-73
2023/06/14 14:38:15;;;;;;;8.27;3.22;;;;;;;;;;5056071;28;20028;-75
2023/06/14 14:41:01;;;;;;;14.35;5.35;;;;;;;;;;5055783;28;20029;-73
2023/06/14 14:43:46;;;;;;;8.32;5.40;;;;;;;;;;5054652;28;20503;-68
2023/06/14 14:46:31;;;;;;;12.38;4.03;;;;;;;;;;5055872;28;20081;-68
2023/06/14 14:49:17;;;;;;;5.68;3.28;;;;;;;;;;5051845;28;20078;-69
2023/06/14 14:52:02;;;;;;;4.30;3.40;;;;;;;;;;5043752;28;20029;-67
2023/06/14 14:54:47;;;;;;;6.63;3.03;;;;;;;;;;5042156;28;20031;-67
2023/06/14 14:57:32;;;;;;;4.43;3.03;;;;;;;;;;5054404;28;20064;-69
2023/06/14 15:00:18;;;;;;;7.15;3.45;;;;;;;;;;5055275;28;20467;-72
2023/06/14 15:03:03;;;;;;;8.25;3.38;;;;;;;;;;5053166;28;20032;-75
2023/06/14 15:05:48;;;;;;;4.55;3.00;;;;;;;;;;5050611;28;20060;-71
2023/06/14 15:08:34;;;;;;;7.82;3.35;;;;;;;;;;5055405;28;20032;-73
2023/06/14 15:11:19;;;;;;;5.28;3.40;;;;;;;;;;5054714;28;20058;-73
2023/06/14 15:14:04;;;;;;;12.63;4.35;;;;;;;;;;5053999;28;20098;-71
2023/06/14 15:16:50;;;;;;;7.30;3.17;;;;;;;;;;5054492;28;20127;-71
2023/06/14 15:19:36;;;;;;;5.55;3.65;;;;;;;;;;5044528;28;20336;-67
2023/06/14 15:22:21;;;;;;;6.15;3.15;;;;;;;;;;5052572;28;20486;-72
2023/06/14 15:25:08;;;;;;;5.18;3.30;;;;;;;;;;5047651;28;20079;-71
2023/06/14 15:27:53;;;;;;;7.10;3.20;;;;;;;;;;5054812;28;20195;-70
2023/06/14 15:30:38;;;;;;;6.93;3.35;;;;;;;;;;5046524;28;20031;-70
2023/06/14 15:33:24;;;;;;;5.22;3.40;;;;;;;;;;5052728;28;20052;-70
2023/06/14 15:36:10;;;;;;;7.28;3.78;;;;;;;;;;5054248;28;20472;-70
2023/06/14 15:38:55;;;;;;;10.50;3.50;;;;;;;;;;5054186;28;20071;-75
2023/06/14 15:41:40;;;;;;;6.95;3.20;;;;;;;;;;5054252;28;20042;-67
2023/06/14 15:44:26;;;;;;;5.80;3.20;;;;;;;;;;5053556;28;20028;-66
2023/06/14 15:47:11;;;;;;;6.25;3.00;;;;;;;;;;5039161;28;20029;-66
2023/06/14 15:49:56;;;;;;;4.97;2.88;;;;;;;;;;5042929;28;20021;-66
2023/06/14 15:52:42;;;;;;;7.18;3.55;;;;;;;;;;5053737;28;20097;-66
2023/06/14 15:55:27;;;;;;;4.70;3.10;;;;;;;;;;5054331;28;20536;-75
2023/06/14 15:58:12;;;;;;;6.28;3.08;;;;;;;;;;5053801;28;20562;-74
2023/06/14 16:00:57;;;;;;;5.38;3.25;;;;;;;;;;5054177;28;20507;-74
2023/06/14 16:03:43;;;;;;;5.40;3.22;;;;;;;;;;5040697;28;20024;-74
2023/06/14 16:06:28;;;;;;;12.02;3.50;;;;;;;;;;5054429;28;20024;-74
2023/06/14 16:09:13;;;;;;;3.95;2.97;;;;;;;;;;5052994;28;20211;-75
2023/06/14 16:11:58;;;;;;;6.20;3.05;;;;;;;;;;5054342;28;20032;-74
2023/06/14 16:14:44;;;;;;;9.13;3.10;;;;;;;;;;5039393;28;20070;-68
2023/06/14 16:17:29;;;;;;;6.78;3.35;;;;;;;;;;5054186;28;20031;-75
2023/06/14 16:20:14;;;;;;;6.00;3.63;;;;;;;;;;5046174;28;20128;-74
2023/06/14 16:22:59;;;;;;;6.80;2.63;;;;;;;;;;5044403;28;20486;-75
2023/06/14 16:25:45;;;;;;;6.45;3.85;;;;;;;;;;5045652;28;20082;-73
2023/06/14 16:28:31;;;;;;;7.70;3.28;;;;;;;;;;5037786;28;20020;-74
2023/06/14 16:31:18;;;;;;;4.97;3.17;;;;;;;;;;5044418;28;20040;-74
2023/06/14 16:34:08;;;;;;;9.10;3.47;;;;;;;;;;5047543;28;20032;-64
2023/06/14 16:36:53;;;;;;;4.10;2.90;;;;;;;;;;5054138;28;20037;-66